Terminal Aerodrome Forecast
Issued by NWS Duluth, MN

Home | Current Version | Previous Version | Text Only | Print | Product List | Glossary On
Versions: 1 2 3 4 5 6 7 8 9 10 11 12 13 14 15 16 17 18 19 20 21 22 23 24 25 26 27 28 29
000
FTUS43 KDLH 262338
TAFDLH
TAF
KDLH 262338Z 2700/2724 01013KT 2SM BR OVC010
     FM270200 02008KT P6SM OVC010
     FM271000 35007KT P6SM OVC010
     FM271400 32010KT P6SM SCT010 OVC035=

USA.gov is the U.S. government's official web portal to all federal, state and local government web resources and services.